«

»

Čvn 26

Print this Příspěvek

METAR metoinfo z LKNA (Náměšť nad Oslavou

Orig link LKNA zde

 

LKNA 181013Z VRB01KT 6000 BKN004 OVC015 12/11 Q1016 RMK YLO

 

 

Permanent link to this article: http://www.airfly.cz/2018/06/26/metar-metoinfo-z-lkna-namest-nad-oslavou/

Napsat komentář